createdAt,value
2018-12-17T00:00:05.356Z,300.40
2018-12-17T00:01:05.358Z,300.59
2018-12-17T00:02:05.343Z,300.67
2018-12-17T00:03:05.328Z,300.76
2018-12-17T00:04:05.315Z,301.13
2018-12-17T00:05:05.334Z,300.36
2018-12-17T00:06:05.326Z,300.77
2018-12-17T00:07:05.338Z,300.69
2018-12-17T00:08:05.304Z,300.62
2018-12-17T00:09:05.276Z,300.39
2018-12-17T00:10:05.250Z,300.56
2018-12-17T00:11:05.255Z,300.68
2018-12-17T00:12:05.239Z,300.60
2018-12-17T00:13:05.219Z,300.33
2018-12-17T00:14:05.228Z,300.42
2018-12-17T00:15:05.228Z,300.60
2018-12-17T00:16:05.196Z,300.59
2018-12-17T00:17:05.227Z,300.62
2018-12-17T00:18:06.305Z,300.62
2018-12-17T00:19:05.167Z,300.60
2018-12-17T00:20:58.460Z,294.80
2018-12-17T00:21:58.459Z,300.46
2018-12-17T00:22:58.463Z,300.42
2018-12-17T00:23:58.432Z,300.39
2018-12-17T00:24:58.421Z,300.81
2018-12-17T00:25:59.263Z,300.61
2018-12-17T00:26:58.414Z,300.47
2018-12-17T00:27:58.390Z,300.45
2018-12-17T00:28:58.376Z,300.51
2018-12-17T00:29:58.386Z,300.41
2018-12-17T00:30:58.376Z,300.21
2018-12-17T00:31:58.353Z,300.39
2018-12-17T00:32:58.336Z,300.35
2018-12-17T00:34:03.275Z,300.12
2018-12-17T00:34:58.325Z,300.45
2018-12-17T00:35:58.334Z,300.27
2018-12-17T00:37:01.233Z,300.08
2018-12-17T00:37:58.305Z,300.54
2018-12-17T00:38:59.266Z,300.30
2018-12-17T00:39:58.266Z,300.26
2018-12-17T00:40:58.256Z,300.25
2018-12-17T00:41:58.271Z,300.08
2018-12-17T00:42:58.257Z,300.10
2018-12-17T00:43:58.233Z,300.02
2018-12-17T00:44:58.240Z,300.45
2018-12-17T00:45:58.212Z,300.02
2018-12-17T00:46:58.191Z,300.32
2018-12-17T00:47:58.200Z,300.03
2018-12-17T00:48:58.171Z,299.97
2018-12-17T00:49:58.171Z,300.25
2018-12-17T00:50:58.149Z,300.14
2018-12-17T00:51:58.180Z,300.33
2018-12-17T00:52:58.145Z,300.17
2018-12-17T00:53:58.124Z,300.41
2018-12-17T00:54:58.113Z,300.23
2018-12-17T00:55:58.729Z,300.63
2018-12-17T00:56:58.095Z,300.49
2018-12-17T00:57:58.073Z,300.58
2018-12-17T00:58:58.070Z,300.50
2018-12-17T00:59:58.777Z,300.38
2018-12-17T01:00:58.054Z,300.34
2018-12-17T01:01:58.722Z,300.64
2018-12-17T01:02:58.034Z,300.63
2018-12-17T01:03:58.013Z,300.22
2018-12-17T01:04:58.019Z,300.60
2018-12-17T01:05:57.997Z,300.45
2018-12-17T01:06:58.008Z,300.30
2018-12-17T01:07:57.969Z,300.53
2018-12-17T01:08:57.973Z,300.42
2018-12-17T01:09:59.788Z,300.37
2018-12-17T01:10:57.946Z,300.70
2018-12-17T01:11:57.947Z,300.58
2018-12-17T01:12:57.934Z,300.41
2018-12-17T01:13:57.919Z,300.46
2018-12-17T01:14:57.998Z,300.26
2018-12-17T01:15:58.762Z,300.38
2018-12-17T01:16:57.873Z,300.69
2018-12-17T01:17:57.864Z,300.30
2018-12-17T01:18:57.862Z,300.61
2018-12-17T01:19:57.868Z,300.53
2018-12-17T01:20:57.871Z,300.55
2018-12-17T01:21:57.820Z,300.45
2018-12-17T01:22:58.811Z,300.29
2018-12-17T01:23:58.786Z,300.71
2018-12-17T01:24:58.766Z,300.51
2018-12-17T01:25:57.803Z,300.54
2018-12-17T01:26:57.777Z,300.60
2018-12-17T01:27:57.778Z,300.54
2018-12-17T01:28:57.764Z,300.23
2018-12-17T01:29:58.720Z,300.13
2018-12-17T01:30:57.733Z,300.23
2018-12-17T01:31:58.738Z,300.12
2018-12-17T01:32:58.257Z,300.28
2018-12-17T01:33:58.265Z,300.28
2018-12-17T01:34:57.689Z,300.07
2018-12-17T01:35:58.680Z,300.15
2018-12-17T01:37:00.259Z,300.20
2018-12-17T01:37:57.669Z,300.31
2018-12-17T01:38:57.659Z,300.11
2018-12-17T01:39:57.659Z,300.54
2018-12-17T01:40:57.631Z,300.35
2018-12-17T01:41:57.622Z,300.20
2018-12-17T01:42:57.616Z,300.27
2018-12-17T01:43:57.646Z,300.14
2018-12-17T01:44:57.599Z,300.30
2018-12-17T01:45:58.238Z,300.08
2018-12-17T01:46:57.574Z,300.26
2018-12-17T01:47:57.579Z,300.58
2018-12-17T01:48:57.554Z,300.22
2018-12-17T01:49:57.541Z,300.09
2018-12-17T01:50:57.523Z,300.48
2018-12-17T01:51:57.522Z,300.22
2018-12-17T01:52:57.523Z,300.04
2018-12-17T01:53:57.523Z,300.05
2018-12-17T01:54:57.487Z,300.48
2018-12-17T01:55:57.491Z,300.21
2018-12-17T01:56:57.463Z,300.21
2018-12-17T01:57:57.456Z,300.22
2018-12-17T01:58:57.445Z,300.29
2018-12-17T01:59:57.443Z,300.24
2018-12-17T02:00:57.429Z,299.93
2018-12-17T02:01:57.414Z,300.24
2018-12-17T02:02:57.395Z,300.01
2018-12-17T02:03:57.404Z,299.88
2018-12-17T02:04:57.394Z,300.14
2018-12-17T02:05:57.363Z,300.18
2018-12-17T02:06:57.379Z,300.22
2018-12-17T02:07:57.362Z,300.36
2018-12-17T02:08:57.345Z,300.39
2018-12-17T02:09:57.322Z,300.19
2018-12-17T02:10:57.320Z,300.35
2018-12-17T02:11:57.303Z,300.28
2018-12-17T02:12:57.299Z,300.47
2018-12-17T02:13:57.344Z,300.91
2018-12-17T02:14:57.275Z,300.77
2018-12-17T02:15:57.259Z,300.21
2018-12-17T02:16:57.258Z,300.50
2018-12-17T02:17:57.245Z,300.48
2018-12-17T02:18:57.235Z,300.39
2018-12-17T02:19:57.235Z,300.32
2018-12-17T02:20:57.213Z,300.54
2018-12-17T02:21:57.204Z,300.49
2018-12-17T02:22:57.188Z,300.28
2018-12-17T02:23:57.178Z,300.27
2018-12-17T02:24:57.178Z,300.61
2018-12-17T02:25:57.166Z,300.46
2018-12-17T02:26:57.152Z,300.20
2018-12-17T02:27:57.143Z,300.47
2018-12-17T02:28:57.135Z,300.19
2018-12-17T02:29:57.122Z,300.46
2018-12-17T02:30:58.774Z,300.14
2018-12-17T02:31:58.105Z,300.42
2018-12-17T02:32:57.082Z,300.18
2018-12-17T02:33:57.076Z,300.55
2018-12-17T02:34:57.072Z,300.17
2018-12-17T02:35:57.072Z,300.61
2018-12-17T02:36:57.052Z,300.61
2018-12-17T02:37:57.040Z,300.47
2018-12-17T02:38:57.037Z,300.69
2018-12-17T02:39:57.008Z,300.25
2018-12-17T02:40:57.008Z,300.42
2018-12-17T02:41:56.998Z,300.08
2018-12-17T02:42:56.982Z,300.36
2018-12-17T02:43:56.969Z,300.48
2018-12-17T02:44:56.968Z,300.20
2018-12-17T02:45:56.952Z,299.97
2018-12-17T02:46:56.946Z,300.38
2018-12-17T02:47:56.930Z,300.29
2018-12-17T02:48:56.967Z,299.97
2018-12-17T02:49:56.906Z,300.41
2018-12-17T02:50:56.894Z,300.35
2018-12-17T02:51:56.894Z,300.19
2018-12-17T02:52:56.879Z,300.09
2018-12-17T02:53:57.766Z,300.20
2018-12-17T02:54:57.490Z,300.46
2018-12-17T02:55:56.861Z,300.16
2018-12-17T02:56:56.859Z,300.32
2018-12-17T02:57:56.825Z,300.03
2018-12-17T02:58:56.824Z,300.13
2018-12-17T02:59:56.801Z,300.10
2018-12-17T03:00:56.800Z,300.20
2018-12-17T03:01:57.842Z,300.28
2018-12-17T03:02:56.812Z,299.99
2018-12-17T03:03:56.759Z,300.40
2018-12-17T03:04:56.756Z,300.06
2018-12-17T03:05:56.744Z,299.98
2018-12-17T03:06:57.752Z,300.29
2018-12-17T03:07:57.272Z,300.40
2018-12-17T03:08:56.719Z,300.51
2018-12-17T03:09:56.717Z,300.12
2018-12-17T03:10:58.471Z,300.30
2018-12-17T03:11:56.702Z,300.24
2018-12-17T03:12:56.674Z,300.27
2018-12-17T03:13:59.256Z,300.32
2018-12-17T03:14:56.652Z,300.19
2018-12-17T03:15:56.639Z,300.24
2018-12-17T03:16:56.650Z,300.51
2018-12-17T03:17:56.631Z,300.26
2018-12-17T03:18:56.612Z,300.52
2018-12-17T03:19:56.599Z,300.62
2018-12-17T03:20:57.236Z,300.36
2018-12-17T03:21:56.593Z,300.59
2018-12-17T03:22:56.567Z,300.53
2018-12-17T03:23:56.559Z,300.52
2018-12-17T03:24:56.548Z,300.51
2018-12-17T03:25:56.533Z,300.66
2018-12-17T03:26:56.531Z,300.77
2018-12-17T03:27:56.511Z,300.73
2018-12-17T03:28:56.528Z,300.69
2018-12-17T03:29:56.510Z,301.05
2018-12-17T03:30:56.495Z,300.68
2018-12-17T03:31:56.485Z,300.73
2018-12-17T03:32:56.480Z,300.80
2018-12-17T03:33:56.475Z,301.16
2018-12-17T03:34:56.441Z,300.66
2018-12-17T03:35:56.432Z,300.72
2018-12-17T03:36:56.437Z,301.00
2018-12-17T03:37:56.403Z,300.88
2018-12-17T03:38:56.402Z,301.01
2018-12-17T03:39:56.400Z,300.80
2018-12-17T03:40:56.383Z,300.31
2018-12-17T03:41:56.365Z,300.80
2018-12-17T03:42:56.373Z,301.00
2018-12-17T03:43:56.357Z,300.76
2018-12-17T03:44:56.331Z,300.52
2018-12-17T03:45:56.333Z,300.76
2018-12-17T03:46:56.312Z,300.68
2018-12-17T03:47:56.333Z,300.85
2018-12-17T03:48:57.261Z,300.67
2018-12-17T03:49:56.280Z,300.42
2018-12-17T03:50:56.265Z,300.32
2018-12-17T03:51:56.259Z,300.17
2018-12-17T03:52:56.252Z,300.50
2018-12-17T03:53:56.243Z,300.24
2018-12-17T03:54:56.237Z,300.07
2018-12-17T03:55:56.240Z,300.22
2018-12-17T03:56:56.206Z,300.01
2018-12-17T03:57:56.208Z,299.90
2018-12-17T03:58:59.430Z,300.32
2018-12-17T03:59:56.189Z,300.20
2018-12-17T04:00:56.730Z,300.45
2018-12-17T04:01:56.152Z,300.00
2018-12-17T04:02:56.159Z,300.00
2018-12-17T04:03:56.137Z,300.15
2018-12-17T04:04:56.124Z,300.03
2018-12-17T04:05:56.113Z,300.02
2018-12-17T04:06:57.772Z,300.77
2018-12-17T04:07:56.760Z,300.07
2018-12-17T04:08:56.075Z,300.08
2018-12-17T04:09:56.072Z,300.01
2018-12-17T04:10:56.073Z,300.09
2018-12-17T04:11:56.051Z,299.94
2018-12-17T04:12:56.062Z,300.07
2018-12-17T04:13:56.025Z,299.97
2018-12-17T04:14:56.021Z,299.85
2018-12-17T04:15:56.014Z,300.05
2018-12-17T04:16:55.999Z,299.89
2018-12-17T04:17:55.989Z,300.05
2018-12-17T04:18:56.768Z,300.18
2018-12-17T04:19:56.765Z,299.90
2018-12-17T04:20:55.961Z,300.31
2018-12-17T04:21:55.942Z,300.18
2018-12-17T04:22:55.941Z,300.10
2018-12-17T04:23:55.934Z,299.85
2018-12-17T04:24:55.915Z,300.04
2018-12-17T04:25:55.904Z,300.17
2018-12-17T04:26:55.895Z,299.75
2018-12-17T04:27:55.875Z,300.22
2018-12-17T04:28:55.865Z,300.19
2018-12-17T04:29:55.870Z,300.34
2018-12-17T04:30:55.884Z,299.96
2018-12-17T04:31:55.831Z,299.94
2018-12-17T04:32:55.824Z,300.23
2018-12-17T04:33:55.813Z,300.37
2018-12-17T04:34:55.805Z,300.25
2018-12-17T04:35:55.798Z,300.22
2018-12-17T04:36:55.794Z,300.29
2018-12-17T04:37:56.767Z,300.11
2018-12-17T04:38:55.762Z,300.08
2018-12-17T04:39:55.766Z,300.31
2018-12-17T04:40:55.741Z,300.20
2018-12-17T04:41:55.732Z,300.19
2018-12-17T04:42:55.720Z,300.17
2018-12-17T04:43:55.714Z,300.32
2018-12-17T04:44:55.700Z,300.67
2018-12-17T04:45:55.694Z,300.56
2018-12-17T04:46:55.677Z,300.22
2018-12-17T04:47:55.670Z,300.34
2018-12-17T04:48:55.662Z,300.15
2018-12-17T04:49:55.660Z,300.18
2018-12-17T04:50:55.636Z,300.33
2018-12-17T04:51:55.653Z,299.91
2018-12-17T04:52:55.644Z,300.22
2018-12-17T04:53:55.626Z,300.33
2018-12-17T04:54:55.594Z,300.45
2018-12-17T04:55:55.588Z,300.14
2018-12-17T04:56:55.575Z,299.95
2018-12-17T04:57:55.580Z,300.26
2018-12-17T04:58:55.561Z,300.19
2018-12-17T04:59:57.265Z,300.03
2018-12-17T05:00:55.534Z,300.19
2018-12-17T05:01:55.531Z,300.13
2018-12-17T05:02:55.505Z,300.17
2018-12-17T05:03:55.512Z,299.99
2018-12-17T05:04:55.494Z,299.77
2018-12-17T05:05:55.508Z,299.92
2018-12-17T05:06:56.474Z,299.75
2018-12-17T05:07:55.475Z,299.58
2018-12-17T05:08:55.451Z,299.82
2018-12-17T05:09:55.469Z,299.63
2018-12-17T05:10:55.447Z,299.42
2018-12-17T05:11:55.426Z,299.77
2018-12-17T05:12:55.415Z,299.30
2018-12-17T05:13:55.404Z,299.52
2018-12-17T05:14:55.420Z,299.49
2018-12-17T05:15:55.394Z,299.46
2018-12-17T05:16:55.367Z,299.48
2018-12-17T05:17:55.358Z,299.70
2018-12-17T05:18:55.354Z,299.57
2018-12-17T05:19:55.331Z,299.68
2018-12-17T05:20:55.320Z,299.49
2018-12-17T05:21:55.313Z,299.83
2018-12-17T05:22:55.306Z,299.48
2018-12-17T05:23:55.296Z,299.81
2018-12-17T05:24:55.291Z,299.53
2018-12-17T05:25:55.271Z,299.62
2018-12-17T05:26:55.261Z,299.85
2018-12-17T05:27:55.246Z,299.90
2018-12-17T05:28:55.259Z,299.72
2018-12-17T05:29:57.780Z,299.69
2018-12-17T05:30:56.768Z,299.58
2018-12-17T05:31:55.213Z,299.76
2018-12-17T05:32:55.198Z,299.80
2018-12-17T05:33:55.182Z,299.40
2018-12-17T05:34:55.174Z,299.49
2018-12-17T05:35:55.153Z,299.73
2018-12-17T05:36:55.149Z,299.89
2018-12-17T05:37:55.138Z,299.84
2018-12-17T05:38:57.772Z,299.67
2018-12-17T05:39:55.159Z,299.80
2018-12-17T05:40:55.113Z,299.76
2018-12-17T05:41:55.107Z,299.75
2018-12-17T05:42:55.088Z,299.65
2018-12-17T05:43:55.766Z,299.96
2018-12-17T05:44:55.063Z,299.67
2018-12-17T05:45:55.055Z,299.59
2018-12-17T05:46:55.046Z,299.82
2018-12-17T05:47:55.765Z,299.93
2018-12-17T05:48:55.018Z,299.83
2018-12-17T05:49:55.021Z,299.97
2018-12-17T05:50:54.997Z,299.70
2018-12-17T05:51:54.993Z,299.80
2018-12-17T05:52:54.984Z,299.63
2018-12-17T05:53:54.963Z,300.03
2018-12-17T05:54:54.959Z,299.85
2018-12-17T05:55:54.943Z,299.92
2018-12-17T05:56:54.932Z,299.80
2018-12-17T05:57:54.928Z,299.68
2018-12-17T05:58:54.916Z,299.77
2018-12-17T05:59:54.901Z,299.98
2018-12-17T06:00:54.907Z,299.83
2018-12-17T06:01:54.900Z,300.23
2018-12-17T06:02:54.868Z,300.18
2018-12-17T06:03:54.857Z,300.14
2018-12-17T06:04:54.852Z,300.19
2018-12-17T06:05:54.834Z,299.95
2018-12-17T06:06:54.826Z,300.32
2018-12-17T06:07:54.827Z,300.20
2018-12-17T06:08:54.809Z,299.93
2018-12-17T06:09:54.807Z,300.13
2018-12-17T06:10:54.793Z,300.61
2018-12-17T06:11:54.779Z,300.29
2018-12-17T06:12:54.772Z,300.35
2018-12-17T06:13:55.737Z,300.39
2018-12-17T06:14:54.747Z,300.32
2018-12-17T06:15:54.729Z,300.27
2018-12-17T06:16:54.728Z,300.23
2018-12-17T06:17:55.707Z,300.25
2018-12-17T06:18:56.278Z,300.22
2018-12-17T06:19:54.688Z,300.41
2018-12-17T06:20:54.681Z,300.16
2018-12-17T06:21:54.671Z,300.37
2018-12-17T06:22:54.661Z,300.59
2018-12-17T06:23:54.646Z,300.27
2018-12-17T06:24:56.267Z,300.39
2018-12-17T06:25:57.256Z,300.49
2018-12-17T06:26:54.617Z,300.43
2018-12-17T06:27:54.605Z,300.58
2018-12-17T06:28:54.600Z,300.32
2018-12-17T06:29:54.576Z,300.53
2018-12-17T06:30:54.583Z,300.28
2018-12-17T06:31:54.557Z,300.30
2018-12-17T06:32:54.556Z,300.08
2018-12-17T06:33:54.543Z,300.18
2018-12-17T06:34:54.538Z,300.39
2018-12-17T06:35:54.515Z,300.28
2018-12-17T06:36:54.509Z,300.40
2018-12-17T06:37:54.509Z,300.00
2018-12-17T06:38:54.489Z,300.38
2018-12-17T06:39:54.481Z,300.01
2018-12-17T06:40:54.470Z,300.01
2018-12-17T06:41:54.470Z,300.06
2018-12-17T06:42:54.450Z,300.01
2018-12-17T06:43:54.435Z,300.31
2018-12-17T06:44:54.428Z,299.90
2018-12-17T06:45:54.420Z,299.86
2018-12-17T06:46:54.402Z,300.32
2018-12-17T06:47:54.394Z,299.95
2018-12-17T06:48:54.410Z,300.04
2018-12-17T06:49:55.219Z,299.88
2018-12-17T06:50:54.376Z,299.96
2018-12-17T06:51:54.354Z,300.07
2018-12-17T06:52:54.337Z,299.83
2018-12-17T06:53:54.338Z,299.45
2018-12-17T06:54:55.270Z,299.97
2018-12-17T06:55:54.310Z,299.87
2018-12-17T06:56:54.301Z,299.79
2018-12-17T06:57:54.314Z,299.62
2018-12-17T06:58:54.295Z,299.79
2018-12-17T06:59:54.301Z,299.77
2018-12-17T07:00:54.276Z,299.50
2018-12-17T07:01:54.270Z,299.84
2018-12-17T07:02:54.235Z,299.71
2018-12-17T07:03:54.223Z,299.72
2018-12-17T07:04:54.222Z,299.86
2018-12-17T07:05:54.205Z,299.84
2018-12-17T07:06:54.195Z,299.85
2018-12-17T07:07:54.198Z,299.71
2018-12-17T07:08:54.179Z,299.80
2018-12-17T07:09:54.164Z,299.71
2018-12-17T07:10:54.159Z,299.80
2018-12-17T07:11:54.141Z,300.00
2018-12-17T07:12:54.135Z,299.86
2018-12-17T07:13:54.133Z,299.82
2018-12-17T07:14:54.119Z,299.61
2018-12-17T07:15:54.107Z,299.82
2018-12-17T07:16:54.102Z,299.71
2018-12-17T07:17:54.111Z,299.83
2018-12-17T07:18:54.089Z,299.70
2018-12-17T07:19:54.243Z,299.79
2018-12-17T07:20:54.051Z,299.70
2018-12-17T07:21:54.039Z,300.05
2018-12-17T07:22:54.034Z,299.88
2018-12-17T07:23:54.015Z,299.86
2018-12-17T07:24:54.027Z,299.99
2018-12-17T07:25:53.997Z,299.61
2018-12-17T07:26:53.989Z,300.01
2018-12-17T07:27:53.977Z,299.83
2018-12-17T07:28:53.968Z,299.81
2018-12-17T07:29:53.946Z,299.67
2018-12-17T07:30:54.757Z,299.62
2018-12-17T07:31:53.934Z,299.73
2018-12-17T07:32:53.927Z,299.70
2018-12-17T07:33:53.910Z,299.95
2018-12-17T07:34:53.903Z,299.95
2018-12-17T07:35:53.889Z,299.53
2018-12-17T07:36:53.881Z,299.63
2018-12-17T07:37:53.872Z,299.97
2018-12-17T07:38:53.864Z,299.45
2018-12-17T07:39:53.850Z,299.68
2018-12-17T07:40:53.842Z,299.81
2018-12-17T07:41:53.838Z,299.84
2018-12-17T07:42:53.841Z,300.10
2018-12-17T07:43:53.804Z,299.67
2018-12-17T07:44:53.793Z,300.05
2018-12-17T07:45:53.796Z,299.63
2018-12-17T07:46:53.782Z,299.86
2018-12-17T07:47:53.771Z,299.69
2018-12-17T07:48:53.753Z,300.06
2018-12-17T07:49:53.742Z,299.95
2018-12-17T07:50:53.733Z,299.80
2018-12-17T07:51:53.723Z,300.17
2018-12-17T07:52:53.722Z,300.28
2018-12-17T07:53:53.694Z,300.24
2018-12-17T07:54:53.690Z,300.21
2018-12-17T07:55:53.682Z,300.41
2018-12-17T07:56:53.671Z,300.50
2018-12-17T07:57:53.662Z,300.18
2018-12-17T07:58:53.658Z,300.45
2018-12-17T07:59:56.617Z,300.62
2018-12-17T08:00:53.631Z,300.57
2018-12-17T08:01:53.619Z,300.85
2018-12-17T08:02:53.605Z,300.55
2018-12-17T08:03:53.603Z,300.92
2018-12-17T08:04:53.588Z,300.77
2018-12-17T08:05:53.581Z,300.96
2018-12-17T08:06:53.568Z,300.54
2018-12-17T08:07:53.575Z,300.80
2018-12-17T08:08:54.263Z,300.92
2018-12-17T08:09:53.529Z,300.55
2018-12-17T08:10:53.519Z,300.75
2018-12-17T08:11:53.508Z,300.54
2018-12-17T08:12:54.263Z,300.75
2018-12-17T08:13:53.488Z,300.61
2018-12-17T08:14:53.473Z,300.53
2018-12-17T08:15:53.468Z,300.68
2018-12-17T08:16:53.588Z,300.53
2018-12-17T08:17:53.443Z,300.39
2018-12-17T08:18:53.438Z,300.30
2018-12-17T08:19:54.264Z,299.99
2018-12-17T08:20:53.414Z,300.13
2018-12-17T08:21:53.431Z,299.99
2018-12-17T08:22:53.502Z,299.78
2018-12-17T08:23:53.379Z,299.65
2018-12-17T08:24:53.376Z,299.63
2018-12-17T08:25:53.361Z,299.65
2018-12-17T08:26:53.354Z,299.63
2018-12-17T08:27:53.352Z,299.54
2018-12-17T08:28:53.332Z,299.41
2018-12-17T08:29:53.318Z,299.76
2018-12-17T08:30:53.318Z,299.10
2018-12-17T08:31:53.316Z,299.64
2018-12-17T08:32:53.307Z,299.43
2018-12-17T08:33:54.268Z,299.43
2018-12-17T08:34:53.296Z,299.48
2018-12-17T08:35:53.268Z,299.48
2018-12-17T08:36:54.244Z,299.25
2018-12-17T08:37:53.238Z,299.57
2018-12-17T08:38:53.232Z,299.24
2018-12-17T08:39:53.231Z,299.39
2018-12-17T08:40:53.233Z,299.62
2018-12-17T08:41:53.207Z,299.41
2018-12-17T08:42:53.198Z,299.36
2018-12-17T08:43:53.198Z,299.33
2018-12-17T08:44:53.173Z,299.30
2018-12-17T08:45:53.774Z,299.33
2018-12-17T08:46:53.145Z,299.26
2018-12-17T08:47:53.137Z,299.51
2018-12-17T08:48:53.129Z,299.58
2018-12-17T08:49:53.130Z,299.38
2018-12-17T08:50:53.129Z,299.07
2018-12-17T08:51:53.104Z,299.04
2018-12-17T08:52:53.088Z,299.32
2018-12-17T08:53:53.210Z,299.24
2018-12-17T08:54:53.061Z,299.36
2018-12-17T08:55:53.502Z,299.44
2018-12-17T08:56:53.046Z,299.19
2018-12-17T08:57:53.042Z,299.50
2018-12-17T08:58:53.035Z,299.24
2018-12-17T08:59:53.023Z,299.12
2018-12-17T09:00:53.030Z,299.34
2018-12-17T09:01:52.999Z,299.39
2018-12-17T09:02:52.981Z,299.44
2018-12-17T09:03:53.014Z,299.39
2018-12-17T09:04:52.962Z,299.24
2018-12-17T09:05:52.993Z,299.62
2018-12-17T09:06:53.782Z,299.52
2018-12-17T09:07:52.950Z,299.47
2018-12-17T09:08:54.773Z,299.65
2018-12-17T09:09:52.920Z,299.75
2018-12-17T09:10:53.450Z,299.44
2018-12-17T09:11:52.891Z,299.44
2018-12-17T09:12:52.881Z,299.44
2018-12-17T09:13:52.892Z,299.50
2018-12-17T09:14:52.866Z,299.31
2018-12-17T09:15:52.844Z,299.35
2018-12-17T09:16:52.835Z,299.44
2018-12-17T09:17:52.818Z,299.41
2018-12-17T09:18:52.811Z,299.57
2018-12-17T09:19:52.805Z,299.72
2018-12-17T09:20:52.783Z,299.57
2018-12-17T09:21:52.777Z,299.46
2018-12-17T09:22:53.764Z,299.63
2018-12-17T09:23:52.758Z,299.78
2018-12-17T09:24:52.751Z,299.70
2018-12-17T09:25:52.745Z,299.54
2018-12-17T09:26:52.731Z,299.44
2018-12-17T09:27:53.720Z,299.43
2018-12-17T09:28:52.701Z,299.64
2018-12-17T09:29:52.701Z,299.67
2018-12-17T09:30:53.787Z,299.51
2018-12-17T09:31:52.690Z,299.54
2018-12-17T09:32:53.479Z,299.80
2018-12-17T09:33:52.686Z,299.77
2018-12-17T09:34:52.760Z,299.39
2018-12-17T09:35:53.275Z,299.58
2018-12-17T09:36:52.767Z,299.49
2018-12-17T09:37:52.614Z,299.57
2018-12-17T09:38:54.280Z,299.72
2018-12-17T09:39:53.688Z,299.61
2018-12-17T09:40:52.819Z,299.68
2018-12-17T09:41:52.746Z,299.20
2018-12-17T09:42:52.565Z,299.55
2018-12-17T09:43:53.235Z,299.72
2018-12-17T09:44:52.561Z,299.69
2018-12-17T09:45:52.530Z,299.43
2018-12-17T09:46:53.278Z,299.31
2018-12-17T09:47:52.504Z,299.82
2018-12-17T09:48:52.505Z,299.59
2018-12-17T09:49:54.285Z,299.74
2018-12-17T09:50:52.497Z,299.45
2018-12-17T09:51:53.278Z,299.71
2018-12-17T09:52:52.507Z,299.76
2018-12-17T09:53:53.288Z,299.47
2018-12-17T09:54:54.287Z,299.68
2018-12-17T09:55:52.423Z,299.41
2018-12-17T09:56:52.512Z,299.94
2018-12-17T09:57:52.406Z,299.58
2018-12-17T09:58:52.500Z,299.83
2018-12-17T09:59:52.373Z,299.58
2018-12-17T10:00:52.508Z,299.53
2018-12-17T10:01:53.245Z,299.77
2018-12-17T10:02:53.347Z,299.53
2018-12-17T10:03:52.336Z,299.50
2018-12-17T10:04:53.288Z,299.46
2018-12-17T10:05:53.280Z,299.69
2018-12-17T10:06:52.355Z,299.91
2018-12-17T10:07:52.293Z,299.72
2018-12-17T10:08:53.236Z,299.56
2018-12-17T10:09:52.334Z,299.81
2018-12-17T10:10:53.270Z,299.37
2018-12-17T10:11:52.260Z,299.85
2018-12-17T10:12:52.802Z,299.78
2018-12-17T10:13:53.770Z,299.64
2018-12-17T10:14:54.768Z,299.75
2018-12-17T10:15:53.223Z,299.49
2018-12-17T10:16:52.328Z,299.67
2018-12-17T10:17:53.190Z,299.30
2018-12-17T10:18:52.274Z,299.59
2018-12-17T10:19:52.167Z,299.63
2018-12-17T10:20:52.281Z,299.62
2018-12-17T10:21:52.168Z,299.87
2018-12-17T10:22:52.152Z,299.98
2018-12-17T10:23:52.130Z,299.66
2018-12-17T10:24:53.114Z,299.95
2018-12-17T10:25:52.109Z,299.64
2018-12-17T10:26:53.795Z,299.84
2018-12-17T10:27:53.765Z,299.53
2018-12-17T10:28:52.769Z,299.93
2018-12-17T10:29:52.065Z,299.77
2018-12-17T10:30:52.119Z,299.85
2018-12-17T10:31:52.037Z,300.00
2018-12-17T10:32:52.045Z,299.43
2018-12-17T10:33:53.798Z,299.70
2018-12-17T10:34:53.081Z,299.70
2018-12-17T10:35:52.765Z,299.66
2018-12-17T10:36:52.033Z,299.58
2018-12-17T10:37:52.004Z,299.54
2018-12-17T10:38:51.983Z,299.88
2018-12-17T10:39:51.973Z,299.40
2018-12-17T10:40:51.954Z,299.47
2018-12-17T10:41:51.941Z,299.56
2018-12-17T10:42:51.925Z,299.41
2018-12-17T10:43:51.927Z,299.75
2018-12-17T10:44:52.936Z,299.70
2018-12-17T10:45:51.927Z,299.83
2018-12-17T10:46:51.889Z,299.43
2018-12-17T10:47:52.784Z,299.55
2018-12-17T10:48:51.865Z,299.52
2018-12-17T10:49:53.775Z,299.67
2018-12-17T10:50:52.878Z,299.71
2018-12-17T10:51:55.765Z,299.66
2018-12-17T10:52:51.836Z,299.70
2018-12-17T10:53:51.957Z,299.50
2018-12-17T10:54:51.800Z,299.45
2018-12-17T10:55:51.895Z,299.49
2018-12-17T10:56:51.785Z,299.33
2018-12-17T10:57:51.799Z,299.29
2018-12-17T10:58:51.758Z,299.38
2018-12-17T10:59:51.749Z,299.32
2018-12-17T11:00:51.748Z,299.38
2018-12-17T11:01:51.727Z,299.75
2018-12-17T11:02:51.720Z,299.29
2018-12-17T11:03:51.756Z,299.16
2018-12-17T11:04:51.689Z,299.49
2018-12-17T11:05:51.738Z,299.19
2018-12-17T11:06:51.667Z,299.40
2018-12-17T11:07:51.685Z,299.21
2018-12-17T11:08:51.737Z,299.54
2018-12-17T11:09:51.705Z,299.54
2018-12-17T11:10:51.818Z,299.49
2018-12-17T11:11:52.621Z,299.52
2018-12-17T11:12:51.612Z,299.21
2018-12-17T11:13:51.609Z,299.19
2018-12-17T11:14:52.294Z,299.13
2018-12-17T11:15:51.575Z,299.27
2018-12-17T11:16:51.560Z,299.08
2018-12-17T11:17:52.317Z,299.41
2018-12-17T11:18:51.541Z,299.36
2018-12-17T11:19:53.276Z,299.22
2018-12-17T11:20:53.353Z,299.21
2018-12-17T11:21:51.519Z,299.35
2018-12-17T11:22:51.515Z,299.19
2018-12-17T11:23:53.283Z,299.04
2018-12-17T11:24:52.289Z,299.34
2018-12-17T11:25:52.478Z,299.22
2018-12-17T11:26:51.484Z,299.40
2018-12-17T11:27:51.506Z,299.42
2018-12-17T11:28:51.455Z,299.30
2018-12-17T11:29:52.276Z,299.53
2018-12-17T11:30:52.456Z,299.27
2018-12-17T11:31:51.415Z,299.61
2018-12-17T11:32:52.415Z,299.52
2018-12-17T11:33:52.388Z,299.50
2018-12-17T11:34:51.408Z,299.46
2018-12-17T11:35:51.375Z,299.51
2018-12-17T11:36:51.357Z,299.68
2018-12-17T11:37:52.235Z,299.37
2018-12-17T11:38:51.333Z,299.43
2018-12-17T11:39:51.329Z,299.53
2018-12-17T11:40:51.311Z,299.66
2018-12-17T11:41:52.323Z,299.44
2018-12-17T11:42:51.298Z,299.86
2018-12-17T11:43:51.290Z,299.88
2018-12-17T11:44:51.780Z,299.53
2018-12-17T11:45:51.261Z,299.58
2018-12-17T11:46:52.251Z,299.60
2018-12-17T11:47:51.424Z,299.06
2018-12-17T11:48:51.241Z,299.45
2018-12-17T11:49:51.736Z,299.42
2018-12-17T11:50:51.242Z,299.50
2018-12-17T11:51:51.203Z,299.14
2018-12-17T11:52:51.184Z,299.20
2018-12-17T11:53:51.186Z,299.71
2018-12-17T11:54:52.171Z,299.67
2018-12-17T11:55:52.159Z,299.45
2018-12-17T11:56:51.155Z,299.41
2018-12-17T11:58:00.332Z,299.50
2018-12-17T11:58:51.121Z,299.40
2018-12-17T11:59:58.413Z,299.26
2018-12-17T12:00:53.904Z,299.64
2018-12-17T12:01:52.871Z,299.40
2018-12-17T12:02:59.308Z,299.19
2018-12-17T12:03:51.085Z,299.32
2018-12-17T12:05:01.468Z,299.17
2018-12-17T12:05:51.971Z,299.48
2018-12-17T12:06:51.030Z,299.24
2018-12-17T12:07:51.034Z,299.41
2018-12-17T12:08:51.030Z,299.39
2018-12-17T12:09:51.001Z,299.46
2018-12-17T12:10:51.014Z,299.22
2018-12-17T12:11:51.969Z,299.28
2018-12-17T12:12:51.967Z,299.17
2018-12-17T12:13:50.977Z,299.31
2018-12-17T12:14:50.955Z,299.39
2018-12-17T12:15:50.938Z,299.39
2018-12-17T12:16:50.967Z,299.58
2018-12-17T12:17:50.918Z,299.15
2018-12-17T12:18:51.898Z,299.28
2018-12-17T12:19:50.903Z,299.57
2018-12-17T12:20:53.434Z,299.35
2018-12-17T12:21:50.879Z,299.48
2018-12-17T12:22:50.885Z,299.46
2018-12-17T12:23:50.857Z,299.56
2018-12-17T12:24:51.423Z,299.57
2018-12-17T12:25:53.418Z,299.74
2018-12-17T12:26:50.825Z,298.89
2018-12-17T12:27:50.855Z,299.29
2018-12-17T12:28:50.797Z,299.22